createdAt,value
2018-11-27T00:00:46.215Z,26.60
2018-11-27T00:03:16.953Z,31.50
2018-11-27T00:05:47.586Z,32.77
2018-11-27T00:09:12.848Z,26.77
2018-11-27T00:11:43.584Z,21.90
2018-11-27T00:14:14.302Z,23.53
2018-11-27T00:16:47.753Z,23.07
2018-11-27T00:19:19.607Z,23.47
2018-11-27T00:21:57.768Z,23.80
2018-11-27T00:24:38.604Z,25.37
2018-11-27T00:27:31.226Z,28.17
2018-11-27T00:30:09.940Z,26.23
2018-11-27T00:32:41.020Z,26.90
2018-11-27T00:35:12.838Z,29.57
2018-11-27T00:37:44.351Z,27.60
2018-11-27T00:40:18.631Z,27.00
2018-11-27T00:42:49.298Z,26.90
2018-11-27T00:45:20.988Z,23.33
2018-11-27T00:47:52.382Z,21.83
2018-11-27T00:50:35.066Z,23.33
2018-11-27T00:53:08.085Z,24.47
2018-11-27T00:55:40.434Z,25.47
2018-11-27T00:58:16.531Z,24.13
2018-11-27T01:00:47.642Z,24.63
2018-11-27T01:03:18.270Z,24.63
2018-11-27T01:05:48.916Z,24.30
2018-11-27T01:08:19.614Z,24.93
2018-11-27T01:10:50.330Z,25.17
2018-11-27T01:13:21.634Z,25.50
2018-11-27T01:15:52.548Z,27.47
2018-11-27T01:18:23.151Z,27.60
2018-11-27T01:20:54.615Z,25.87
2018-11-27T01:23:25.218Z,26.90
2018-11-27T01:25:55.884Z,24.73
2018-11-27T01:28:26.537Z,22.57
2018-11-27T01:30:57.248Z,21.47
2018-11-27T01:33:27.881Z,23.10
2018-11-27T01:35:58.540Z,21.27
2018-11-27T01:38:29.170Z,21.93
2018-11-27T01:40:59.946Z,22.80
2018-11-27T01:43:31.255Z,22.60
2018-11-27T01:46:03.415Z,22.13
2018-11-27T01:48:34.036Z,20.93
2018-11-27T01:51:05.908Z,19.60
2018-11-27T01:53:36.554Z,20.10
2018-11-27T01:56:07.596Z,21.70
2018-11-27T01:58:38.244Z,20.17
2018-11-27T02:01:08.911Z,21.63
2018-11-27T02:03:39.631Z,23.27
2018-11-27T02:06:10.290Z,25.27
2018-11-27T02:08:40.996Z,25.87
2018-11-27T02:11:11.618Z,25.73
2018-11-27T02:13:42.350Z,26.43
2018-11-27T02:16:12.991Z,26.60
2018-11-27T02:18:44.019Z,26.13
2018-11-27T02:21:14.763Z,26.80
2018-11-27T02:23:45.867Z,26.60
2018-11-27T02:26:16.624Z,26.53
2018-11-27T02:28:47.278Z,25.70
2018-11-27T02:31:17.876Z,25.33
2018-11-27T02:33:48.723Z,24.70
2018-11-27T02:36:19.433Z,25.07
2018-11-27T02:38:50.046Z,24.53
2018-11-27T02:41:21.270Z,24.67
2018-11-27T02:43:51.875Z,21.10
2018-11-27T02:46:23.204Z,20.93
2018-11-27T02:48:53.890Z,21.93
2018-11-27T02:51:24.544Z,22.53
2018-11-27T02:53:55.268Z,22.40
2018-11-27T02:56:25.985Z,23.20
2018-11-27T02:58:56.610Z,23.57
2018-11-27T03:01:27.665Z,24.23
2018-11-27T03:03:58.496Z,23.20
2018-11-27T03:06:29.152Z,23.60
2018-11-27T03:08:59.817Z,24.53
2018-11-27T03:11:30.547Z,22.90
2018-11-27T03:14:05.327Z,24.73
2018-11-27T03:16:36.021Z,24.97
2018-11-27T03:19:08.733Z,24.23
2018-11-27T03:21:39.376Z,22.77
2018-11-27T03:24:10.015Z,21.23
2018-11-27T03:26:40.611Z,22.53
2018-11-27T03:29:13.058Z,21.10
2018-11-27T03:31:43.684Z,22.07
2018-11-27T03:34:14.372Z,23.40
2018-11-27T03:36:44.997Z,24.03
2018-11-27T03:39:15.739Z,23.93
2018-11-27T03:41:46.415Z,24.27
2018-11-27T03:44:17.071Z,25.17
2018-11-27T03:46:47.766Z,25.53
2018-11-27T03:49:18.422Z,26.20
2018-11-27T03:51:59.808Z,22.77
2018-11-27T03:54:30.671Z,25.07
2018-11-27T03:57:02.282Z,21.87
2018-11-27T03:59:32.980Z,22.77
2018-11-27T04:02:05.900Z,20.90
2018-11-27T04:04:36.974Z,21.67
2018-11-27T04:07:07.610Z,21.13
2018-11-27T04:09:38.275Z,20.37
2018-11-27T04:12:09.006Z,20.20
2018-11-27T04:14:40.042Z,20.97
2018-11-27T04:17:10.659Z,21.57
2018-11-27T04:19:41.312Z,20.97
2018-11-27T04:22:11.951Z,22.27
2018-11-27T04:24:42.669Z,21.90
2018-11-27T04:27:13.238Z,22.30
2018-11-27T04:29:43.898Z,22.67
2018-11-27T04:32:14.543Z,22.60
2018-11-27T04:34:45.159Z,22.30
2018-11-27T04:37:16.079Z,21.43
2018-11-27T04:39:46.698Z,21.47
2018-11-27T04:42:18.059Z,20.27
2018-11-27T04:44:48.760Z,23.00
2018-11-27T04:47:19.355Z,22.20
2018-11-27T04:49:50.003Z,20.50
2018-11-27T04:52:20.609Z,20.33
2018-11-27T04:54:51.299Z,20.67
2018-11-27T04:57:22.307Z,21.27
2018-11-27T04:59:52.971Z,20.40
2018-11-27T05:02:23.592Z,20.80
2018-11-27T05:04:55.167Z,20.70
2018-11-27T05:07:25.847Z,22.07
2018-11-27T05:09:56.475Z,23.03
2018-11-27T05:12:27.194Z,23.63
2018-11-27T05:14:57.886Z,22.40
2018-11-27T05:17:28.772Z,23.57
2018-11-27T05:19:59.386Z,22.67
2018-11-27T05:22:30.268Z,23.23
2018-11-27T05:25:00.968Z,25.63
2018-11-27T05:27:33.314Z,25.13
2018-11-27T05:30:16.313Z,24.77
2018-11-27T05:32:47.011Z,24.67
2018-11-27T05:35:19.728Z,24.47
2018-11-27T05:37:51.382Z,25.47
2018-11-27T05:40:24.720Z,22.23
2018-11-27T05:42:57.431Z,22.83
2018-11-27T05:45:28.344Z,23.17
2018-11-27T05:47:59.392Z,22.77
2018-11-27T05:50:30.217Z,22.73
2018-11-27T05:53:00.868Z,21.77
2018-11-27T05:55:33.539Z,22.17
2018-11-27T05:58:05.178Z,22.77
2018-11-27T06:00:36.436Z,23.27
2018-11-27T06:03:09.919Z,23.47
2018-11-27T06:05:40.762Z,22.40
2018-11-27T06:08:11.508Z,22.33
2018-11-27T06:10:42.136Z,23.40
2018-11-27T06:13:12.822Z,23.70
2018-11-27T06:15:43.456Z,23.63
2018-11-27T06:18:14.135Z,21.10
2018-11-27T06:20:44.821Z,23.27
2018-11-27T06:23:15.495Z,20.70
2018-11-27T06:25:46.151Z,21.47
2018-11-27T06:28:16.860Z,20.17
2018-11-27T06:30:47.538Z,20.97
2018-11-27T06:33:18.198Z,20.07
2018-11-27T06:35:48.995Z,18.63
2018-11-27T06:38:19.634Z,19.60
2018-11-27T06:40:50.275Z,18.57
2018-11-27T06:43:21.311Z,19.87
2018-11-27T06:45:51.952Z,19.03
2018-11-27T06:48:22.604Z,19.30
2018-11-27T06:50:53.300Z,17.33
2018-11-27T06:53:24.207Z,19.17
2018-11-27T06:55:54.929Z,19.67
2018-11-27T06:58:25.538Z,19.00
2018-11-27T07:00:56.282Z,18.90
2018-11-27T07:03:26.915Z,19.53
2018-11-27T07:06:00.440Z,18.57
2018-11-27T07:08:35.562Z,18.13
2018-11-27T07:11:09.238Z,17.93
2018-11-27T07:13:39.883Z,19.07
2018-11-27T07:16:10.576Z,19.37
2018-11-27T07:18:41.187Z,18.90
2018-11-27T07:21:11.848Z,18.67
2018-11-27T07:23:42.539Z,18.30
2018-11-27T07:26:13.206Z,18.63
2018-11-27T07:28:43.884Z,17.60
2018-11-27T07:31:15.859Z,18.73
2018-11-27T07:33:46.975Z,17.57
2018-11-27T07:36:17.635Z,18.23
2018-11-27T07:38:48.667Z,16.47
2018-11-27T07:41:19.541Z,17.50
2018-11-27T07:43:50.456Z,17.37
2018-11-27T07:46:21.082Z,18.77
2018-11-27T07:48:51.772Z,19.10
2018-11-27T07:51:22.398Z,18.43
2018-11-27T07:53:53.068Z,16.77
2018-11-27T07:56:23.666Z,16.63
2018-11-27T07:58:54.360Z,15.80
2018-11-27T08:01:25.025Z,16.43
2018-11-27T08:03:55.662Z,16.57
2018-11-27T08:06:26.831Z,16.43
2018-11-27T08:08:58.450Z,16.77
2018-11-27T08:11:33.556Z,15.67
2018-11-27T08:14:07.371Z,15.10
2018-11-27T08:16:38.026Z,15.63
2018-11-27T08:19:08.671Z,14.40
2018-11-27T08:21:39.374Z,14.73
2018-11-27T08:24:10.058Z,14.77
2018-11-27T08:26:40.795Z,14.80
2018-11-27T08:29:11.399Z,15.37
2018-11-27T08:31:42.094Z,15.57
2018-11-27T08:34:12.690Z,15.33
2018-11-27T08:36:43.855Z,15.53
2018-11-27T08:39:14.469Z,16.43
2018-11-27T08:41:45.135Z,16.10
2018-11-27T08:44:22.205Z,15.63
2018-11-27T08:46:52.911Z,15.00
2018-11-27T08:49:24.671Z,13.60
2018-11-27T08:51:55.501Z,13.93
2018-11-27T08:54:26.173Z,13.10
2018-11-27T08:56:56.798Z,15.00
2018-11-27T08:59:27.459Z,14.90
2018-11-27T09:01:58.114Z,15.57
2018-11-27T09:04:28.716Z,18.70
2018-11-27T09:06:59.370Z,16.03
2018-11-27T09:09:29.994Z,14.17
2018-11-27T09:12:00.668Z,14.40
2018-11-27T09:14:33.825Z,13.87
2018-11-27T09:17:08.179Z,14.00
2018-11-27T09:19:38.859Z,15.93
2018-11-27T09:22:12.705Z,18.70
2018-11-27T09:24:40.783Z,19.67
2018-11-27T09:27:11.395Z,22.90
2018-11-27T09:29:42.411Z,24.10
2018-11-27T09:32:13.111Z,25.37
2018-11-27T09:34:44.770Z,24.10
2018-11-27T09:37:15.489Z,25.47
2018-11-27T09:39:46.156Z,24.75
2018-11-27T09:42:16.867Z,26.93
2018-11-27T09:44:47.574Z,27.13
2018-11-27T09:47:18.253Z,28.47
2018-11-27T09:49:48.957Z,31.13
2018-11-27T09:52:19.599Z,32.73
2018-11-27T09:54:50.271Z,35.50
2018-11-27T09:57:20.936Z,33.40
2018-11-27T09:59:51.634Z,37.83
2018-11-27T10:02:22.281Z,44.98
2018-11-27T10:04:52.961Z,45.87
2018-11-27T10:07:23.767Z,51.00
2018-11-27T10:09:54.534Z,50.50
2018-11-27T10:12:25.287Z,43.02
2018-11-27T10:14:55.965Z,44.53
2018-11-27T10:17:26.635Z,35.50
2018-11-27T10:19:57.393Z,32.35
2018-11-27T10:22:28.255Z,29.30
2018-11-27T10:24:58.943Z,28.02
2018-11-27T10:27:30.017Z,21.23
2018-11-27T10:30:00.657Z,20.95
2018-11-27T10:32:33.204Z,22.60
2018-11-27T10:35:08.422Z,17.85
2018-11-27T10:37:39.100Z,14.93
2018-11-27T10:40:10.420Z,15.85
2018-11-27T10:42:41.110Z,17.40
2018-11-27T10:45:14.137Z,18.32
2018-11-27T10:47:45.431Z,19.65
2018-11-27T10:50:16.953Z,15.75
2018-11-27T10:52:48.719Z,17.87
2018-11-27T10:55:20.119Z,19.42
2018-11-27T10:57:50.875Z,16.05
2018-11-27T11:00:28.344Z,16.10
2018-11-27T11:03:05.690Z,16.23
2018-11-27T11:05:37.672Z,22.17
2018-11-27T11:08:08.364Z,22.70
2018-11-27T11:10:39.079Z,20.92
2018-11-27T11:13:09.794Z,19.85
2018-11-27T11:15:40.532Z,18.02
2018-11-27T11:18:11.234Z,17.57
2018-11-27T11:20:41.918Z,17.00
2018-11-27T11:23:12.570Z,16.67
2018-11-27T11:25:43.305Z,15.85
2018-11-27T11:28:13.987Z,18.07
2018-11-27T11:30:44.793Z,18.32
2018-11-27T11:33:15.501Z,18.05
2018-11-27T11:35:46.221Z,19.80
2018-11-27T11:38:16.892Z,19.45
2018-11-27T11:40:47.619Z,19.05
2018-11-27T11:43:18.360Z,19.98
2018-11-27T11:45:49.041Z,23.10
2018-11-27T11:48:19.806Z,28.23
2018-11-27T11:50:50.562Z,27.85
2018-11-27T11:53:21.332Z,33.28
2018-11-27T11:55:52.717Z,28.75
2018-11-27T11:58:23.449Z,32.85
2018-11-27T12:00:55.471Z,28.42
2018-11-27T12:03:26.132Z,26.25
2018-11-27T12:05:56.857Z,26.17
2018-11-27T12:08:28.261Z,22.17
2018-11-27T12:10:59.024Z,20.17
2018-11-27T12:13:29.789Z,20.15
2018-11-27T12:16:00.482Z,20.80
2018-11-27T12:18:36.548Z,20.65
2018-11-27T12:21:07.819Z,21.02
2018-11-27T12:23:39.099Z,21.95
2018-11-27T12:26:09.855Z,22.60
2018-11-27T12:28:41.049Z,22.58
2018-11-27T12:31:11.765Z,23.52
2018-11-27T12:33:42.429Z,21.12
2018-11-27T12:36:13.115Z,20.90
2018-11-27T12:38:43.841Z,24.87
2018-11-27T12:41:14.601Z,24.47
2018-11-27T12:43:45.309Z,22.42
2018-11-27T12:46:16.037Z,21.33
2018-11-27T12:48:46.689Z,22.15
2018-11-27T12:51:17.866Z,22.15
2018-11-27T12:53:48.197Z,25.43
2018-11-27T12:56:18.933Z,25.27
2018-11-27T12:58:49.610Z,25.32
2018-11-27T13:01:20.761Z,27.13
2018-11-27T13:03:51.587Z,28.45
2018-11-27T13:06:27.699Z,29.63
2018-11-27T13:08:53.177Z,29.85
2018-11-27T13:11:23.912Z,33.15
2018-11-27T13:13:54.670Z,29.63
2018-11-27T13:16:25.465Z,32.55
2018-11-27T13:18:56.221Z,32.65
2018-11-27T13:21:27.053Z,31.30
2018-11-27T13:23:57.761Z,29.35
2018-11-27T13:26:28.461Z,29.40
2018-11-27T13:28:59.129Z,27.67
2018-11-27T13:31:30.886Z,27.05
2018-11-27T13:34:35.227Z,27.67
2018-11-27T13:37:08.412Z,26.55
2018-11-27T13:39:40.606Z,28.02
2018-11-27T13:42:11.305Z,25.05
2018-11-27T13:44:42.149Z,25.75
2018-11-27T13:47:13.429Z,23.90
2018-11-27T13:49:44.116Z,23.10
2018-11-27T13:52:14.998Z,23.57
2018-11-27T13:54:45.690Z,20.55
2018-11-27T13:57:17.354Z,22.45
2018-11-27T13:59:48.230Z,20.23
2018-11-27T14:02:19.029Z,23.80
2018-11-27T14:04:49.980Z,22.00
2018-11-27T14:07:20.747Z,21.97
2018-11-27T14:09:51.967Z,23.87
2018-11-27T14:12:22.698Z,26.75
2018-11-27T14:14:53.405Z,24.02
2018-11-27T14:17:24.043Z,27.10
2018-11-27T14:19:54.777Z,28.12
2018-11-27T14:22:25.454Z,26.80
2018-11-27T14:24:56.165Z,26.27
2018-11-27T14:27:27.004Z,25.68
2018-11-27T14:29:57.726Z,25.43
2018-11-27T14:32:28.428Z,25.10
2018-11-27T14:35:00.037Z,26.60
2018-11-27T14:37:33.098Z,24.60
2018-11-27T14:40:09.845Z,25.80
2018-11-27T14:42:40.588Z,25.10
2018-11-27T14:45:17.301Z,23.90
2018-11-27T14:47:50.986Z,27.70
2018-11-27T14:50:23.222Z,29.37
2018-11-27T14:52:54.985Z,11.88
2018-11-27T14:55:28.984Z,7.70
2018-11-27T14:58:00.682Z,5.67
2018-11-27T15:00:32.869Z,5.50
2018-11-27T15:03:07.251Z,6.22
2018-11-27T15:05:39.677Z,5.10
2018-11-27T15:08:11.869Z,4.37
2018-11-27T15:10:42.595Z,5.60
2018-11-27T15:13:14.129Z,5.58
2018-11-27T15:15:44.913Z,15.20
2018-11-27T15:18:15.586Z,42.83
2018-11-27T15:20:46.314Z,5.12
2018-11-27T15:23:17.286Z,3.52
2018-11-27T15:25:47.990Z,4.50
2018-11-27T15:28:18.682Z,3.98
2018-11-27T15:30:49.390Z,6.05
2018-11-27T15:33:20.397Z,6.03
2018-11-27T15:35:51.130Z,5.62
2018-11-27T15:38:21.792Z,4.10
2018-11-27T15:40:52.578Z,4.12
2018-11-27T15:43:23.267Z,4.83
2018-11-27T15:45:53.975Z,7.83
2018-11-27T15:48:24.755Z,20.97
2018-11-27T15:50:55.519Z,6.60
2018-11-27T15:53:26.292Z,4.10
2018-11-27T15:55:57.002Z,4.78
2018-11-27T15:58:27.769Z,5.20
2018-11-27T16:00:58.567Z,5.33
2018-11-27T16:03:29.410Z,5.28
2018-11-27T16:06:00.129Z,5.42
2018-11-27T16:08:34.546Z,4.97
2018-11-27T16:11:08.849Z,5.30
2018-11-27T16:13:39.584Z,5.20
2018-11-27T16:16:10.370Z,6.72
2018-11-27T16:18:44.070Z,16.80
2018-11-27T16:21:15.114Z,10.38
2018-11-27T16:23:46.021Z,27.07
2018-11-27T16:26:17.110Z,15.30
2018-11-27T16:28:47.807Z,15.90
2018-11-27T16:31:19.081Z,16.90
2018-11-27T16:33:49.814Z,12.15
2018-11-27T16:36:20.464Z,7.60
2018-11-27T16:38:51.209Z,9.30
2018-11-27T16:41:21.974Z,9.33
2018-11-27T16:43:52.741Z,8.13
2018-11-27T16:46:23.499Z,14.68
2018-11-27T16:48:54.821Z,12.98
2018-11-27T16:51:25.536Z,14.73
2018-11-27T16:53:56.234Z,10.75
2018-11-27T16:56:27.023Z,14.95
2018-11-27T16:58:57.717Z,14.15
2018-11-27T17:01:28.443Z,12.37
2018-11-27T17:03:59.242Z,9.73
2018-11-27T17:06:30.195Z,17.23
2018-11-27T17:09:00.985Z,13.05
2018-11-27T17:11:31.694Z,13.15
2018-11-27T17:14:05.573Z,20.17
2018-11-27T17:16:36.517Z,13.53
2018-11-27T17:19:08.438Z,13.10
2018-11-27T17:21:39.113Z,13.38
2018-11-27T17:24:09.851Z,15.78
2018-11-27T17:26:40.538Z,9.68
2018-11-27T17:29:11.262Z,9.38
2018-11-27T17:31:41.997Z,10.70
2018-11-27T17:34:14.827Z,10.60
2018-11-27T17:36:46.731Z,12.98
2018-11-27T17:39:17.401Z,13.22
2018-11-27T17:41:48.162Z,15.25
2018-11-27T17:44:18.890Z,23.45
2018-11-27T17:46:49.577Z,18.67
2018-11-27T17:49:20.803Z,29.05
2018-11-27T17:51:52.651Z,18.67
2018-11-27T17:54:23.618Z,16.42
2018-11-27T17:56:54.324Z,16.82
2018-11-27T17:59:25.006Z,17.82
2018-11-27T18:01:55.743Z,18.35
2018-11-27T18:04:26.420Z,18.92
2018-11-27T18:06:57.098Z,20.23
2018-11-27T18:09:27.787Z,20.15
2018-11-27T18:11:58.950Z,22.17
2018-11-27T18:14:29.662Z,19.92
2018-11-27T18:17:00.338Z,19.27
2018-11-27T18:19:31.191Z,20.02
2018-11-27T18:22:06.798Z,20.32
2018-11-27T18:24:38.520Z,23.73
2018-11-27T18:27:08.278Z,24.32
2018-11-27T18:29:39.145Z,28.30
2018-11-27T18:32:10.231Z,28.25
2018-11-27T18:34:40.917Z,39.65
2018-11-27T18:37:11.597Z,35.28
2018-11-27T18:39:42.266Z,33.88
2018-11-27T18:42:12.899Z,27.80
2018-11-27T18:44:43.574Z,27.02
2018-11-27T18:47:14.210Z,26.85
2018-11-27T18:49:44.831Z,29.02
2018-11-27T18:52:15.567Z,30.65
2018-11-27T18:54:46.234Z,30.40
2018-11-27T18:57:16.947Z,29.18
2018-11-27T18:59:47.627Z,29.12
2018-11-27T19:02:19.271Z,36.48
2018-11-27T19:04:49.981Z,33.25
2018-11-27T19:07:20.730Z,36.30
2018-11-27T19:09:51.431Z,34.83
2018-11-27T19:12:22.091Z,35.70
2018-11-27T19:14:52.932Z,53.17
2018-11-27T19:17:23.640Z,60.78
2018-11-27T19:19:54.365Z,51.00
2018-11-27T19:22:25.596Z,49.95
2018-11-27T19:24:56.279Z,40.28
2018-11-27T19:27:27.025Z,37.03
2018-11-27T19:29:57.899Z,36.10
2018-11-27T19:32:28.519Z,34.98
2018-11-27T19:34:59.225Z,33.80
2018-11-27T19:37:30.619Z,41.85
2018-11-27T19:40:06.267Z,46.83
2018-11-27T19:42:36.898Z,46.92
2018-11-27T19:45:11.079Z,46.13
2018-11-27T19:47:41.810Z,47.08
2018-11-27T19:50:13.956Z,45.25
2018-11-27T19:52:45.675Z,46.20
2018-11-27T19:55:17.508Z,47.78
2018-11-27T19:57:48.215Z,47.70
2018-11-27T20:00:23.880Z,46.75
2018-11-27T20:02:54.817Z,48.63
2018-11-27T20:05:28.915Z,47.90
2018-11-27T20:08:01.036Z,48.68
2018-11-27T20:10:32.902Z,52.75
2018-11-27T20:13:06.347Z,49.55
2018-11-27T20:15:37.147Z,49.63
2018-11-27T20:18:08.453Z,51.20
2018-11-27T20:20:39.230Z,58.52
2018-11-27T20:23:09.946Z,52.88
2018-11-27T20:25:40.874Z,63.42
2018-11-27T20:28:12.919Z,55.55
2018-11-27T20:30:44.667Z,41.18
2018-11-27T20:33:15.398Z,42.13
2018-11-27T20:35:46.042Z,54.20
2018-11-27T20:38:16.801Z,75.25
2018-11-27T20:40:48.452Z,79.75
2018-11-27T20:43:18.504Z,74.20
2018-11-27T20:45:50.042Z,71.87
2018-11-27T20:48:21.163Z,72.10
2018-11-27T20:50:53.099Z,74.17
2018-11-27T20:53:23.797Z,70.72
2018-11-27T20:55:54.504Z,75.20
2018-11-27T20:58:25.712Z,75.05
2018-11-27T21:00:56.868Z,88.40
2018-11-27T21:03:27.647Z,82.90
2018-11-27T21:05:58.350Z,87.70
2018-11-27T21:08:33.687Z,95.05
2018-11-27T21:11:09.334Z,92.27
2018-11-27T21:13:40.061Z,83.50
2018-11-27T21:16:13.179Z,77.90
2018-11-27T21:18:44.003Z,71.37
2018-11-27T21:21:14.726Z,68.47
2018-11-27T21:23:45.457Z,65.17
2018-11-27T21:26:16.609Z,62.13
2018-11-27T21:28:47.299Z,61.58
2018-11-27T21:31:17.976Z,60.97
2018-11-27T21:33:51.255Z,58.85
2018-11-27T21:36:24.124Z,61.30
2018-11-27T21:38:54.898Z,60.67
2018-11-27T21:41:29.062Z,60.48
2018-11-27T21:44:00.815Z,61.30
2018-11-27T21:46:36.317Z,63.70
2018-11-27T21:49:08.730Z,62.38
2018-11-27T21:51:39.600Z,59.07
2018-11-27T21:54:11.061Z,57.67
2018-11-27T21:56:41.667Z,57.90
2018-11-27T21:59:13.347Z,62.70
2018-11-27T22:01:44.373Z,63.97
2018-11-27T22:04:15.080Z,61.95
2018-11-27T22:06:46.046Z,63.50
2018-11-27T22:09:23.255Z,62.58
2018-11-27T22:11:53.879Z,61.80
2018-11-27T22:14:24.568Z,67.37
2018-11-27T22:17:04.323Z,67.63
2018-11-27T22:19:35.055Z,70.67
2018-11-27T22:22:06.217Z,67.75
2018-11-27T22:24:38.142Z,63.87
2018-11-27T22:27:08.765Z,61.67
2018-11-27T22:29:40.407Z,61.20
2018-11-27T22:32:11.065Z,63.40
2018-11-27T22:34:42.787Z,62.37
2018-11-27T22:37:13.847Z,62.27
2018-11-27T22:39:44.528Z,54.97
2018-11-27T22:42:15.171Z,52.20
2018-11-27T22:44:45.830Z,48.58
2018-11-27T22:47:16.555Z,53.00
2018-11-27T22:49:47.208Z,55.27
2018-11-27T22:52:18.486Z,55.20
2018-11-27T22:54:49.287Z,52.67
2018-11-27T22:57:20.039Z,53.87
2018-11-27T22:59:51.245Z,55.28
2018-11-27T23:02:22.099Z,56.97
2018-11-27T23:04:52.866Z,55.43
2018-11-27T23:07:28.615Z,54.65
2018-11-27T23:09:59.261Z,50.90
2018-11-27T23:12:29.951Z,51.93
2018-11-27T23:15:07.936Z,56.90
2018-11-27T23:17:38.802Z,55.63
2018-11-27T23:20:18.043Z,56.83
2018-11-27T23:22:48.763Z,56.47
2018-11-27T23:25:20.172Z,61.90
2018-11-27T23:27:51.043Z,52.70
2018-11-27T23:30:23.631Z,49.97
2018-11-27T23:32:54.343Z,49.97
2018-11-27T23:35:24.998Z,50.80
2018-11-27T23:37:55.690Z,57.57
2018-11-27T23:40:26.538Z,54.27
2018-11-27T23:42:57.476Z,54.53
2018-11-27T23:45:28.427Z,55.20
2018-11-27T23:47:59.091Z,53.10
2018-11-27T23:50:29.780Z,53.27
2018-11-27T23:53:00.484Z,50.88
2018-11-27T23:55:31.182Z,47.83
2018-11-27T23:58:01.879Z,48.50
